Time;durP1;ratioP1;P1;durP2;ratioP2;P2;SDS_P1;SDS_P2;PMS_P1;PMS_P2;Temp;Humidity;BMP_temperature;BMP_pressure;BME280_temperature;BME280_humidity;BME280_pressure;Samples;Min_cycle;Max_cycle;Signal;HPM_P1;HPM_P2
2023/03/25 00:02:18;;;;;;;;;;;16.10;92.10;;;;;;5109860;28;20282;-87
2023/03/25 00:04:43;;;;;;;;;;;16.10;92.10;;;;;;5093546;28;19912;-87
2023/03/25 00:07:09;;;;;;;;;;;16.10;92.10;;;;;;5109062;28;19922;-87
2023/03/25 00:09:35;;;;;;;;;;;16.10;92.10;;;;;;5108520;28;19908;-87
2023/03/25 00:12:00;;;;;;;;;;;16.10;92.10;;;;;;5107971;28;20171;-87
2023/03/25 00:14:26;;;;;;;;;;;16.10;92.10;;;;;;5108837;28;20006;-87
2023/03/25 00:16:53;;;;;;;;;;;16.00;92.10;;;;;;5107766;28;20121;-86
2023/03/25 00:19:56;;;;;;;;;;;16.00;92.10;;;;;;5109772;28;19912;-87
2023/03/25 00:22:22;;;;;;;;;;;16.00;92.10;;;;;;5108758;28;20291;-87
2023/03/25 00:24:47;;;;;;;;;;;16.00;92.10;;;;;;5109005;28;19951;-87
2023/03/25 00:27:16;;;;;;;;;;;16.00;92.10;;;;;;5109688;28;20010;-88
2023/03/25 00:29:45;;;;;;;;;;;16.00;92.10;;;;;;5109475;28;19951;-87
2023/03/25 00:32:11;;;;;;;;;;;16.00;92.10;;;;;;5092733;28;19908;-87
2023/03/25 00:34:46;;;;;;;;;;;16.00;92.10;;;;;;5110420;28;19908;-87
2023/03/25 00:37:16;;;;;;;;;;;16.00;92.00;;;;;;5110340;28;20322;-87
2023/03/25 00:39:43;;;;;;;;;;;16.00;92.00;;;;;;5112220;28;20178;-87
2023/03/25 00:42:12;;;;;;;;;;;16.00;92.30;;;;;;5110479;28;20139;-87
2023/03/25 00:44:38;;;;;;;;;;;15.90;92.00;;;;;;5111200;28;19914;-87
2023/03/25 00:47:04;;;;;;;;;;;15.90;92.00;;;;;;5111078;28;19920;-88
2023/03/25 00:49:29;;;;;;;;;;;15.90;92.00;;;;;;5110232;28;20274;-87
2023/03/25 00:51:55;;;;;;;;;;;15.90;92.00;;;;;;5110968;28;19908;-87
2023/03/25 00:54:22;;;;;;;;;;;15.90;92.00;;;;;;5076613;28;19924;-86
2023/03/25 00:56:48;;;;;;;;;;;15.90;92.00;;;;;;5108849;28;19965;-87
2023/03/25 00:59:14;;;;;;;;;;;15.90;92.00;;;;;;5108993;28;20068;-87
2023/03/25 01:01:40;;;;;;;;;;;15.90;91.90;;;;;;5093033;28;20308;-86
2023/03/25 01:04:28;;;;;;;;;;;15.80;91.90;;;;;;5075080;28;19912;-86
2023/03/25 01:06:54;;;;;;;;;;;15.80;91.90;;;;;;5108212;28;19916;-87
2023/03/25 01:09:20;;;;;;;;;;;15.80;91.90;;;;;;5107682;28;19908;-87
2023/03/25 01:11:46;;;;;;;;;;;15.80;91.90;;;;;;5110061;28;19951;-87
2023/03/25 01:14:17;;;;;;;;;;;15.80;91.80;;;;;;5109761;28;19998;-87
2023/03/25 01:16:43;;;;;;;;;;;15.80;91.80;;;;;;5107400;28;20171;-90
2023/03/25 01:19:08;;;;;;;;;;;15.80;91.80;;;;;;5107419;28;19934;-86
2023/03/25 01:21:35;;;;;;;;;;;15.80;91.80;;;;;;5090679;28;19912;-86
2023/03/25 01:24:04;;;;;;;;;;;15.80;91.80;;;;;;5107645;28;20041;-86
2023/03/25 01:26:30;;;;;;;;;;;15.80;91.80;;;;;;5108121;28;20302;-86
2023/03/25 01:28:56;;;;;;;;;;;15.80;91.80;;;;;;5092681;28;19948;-86
2023/03/25 01:31:29;;;;;;;;;;;15.80;91.80;;;;;;5111327;28;19915;-86
2023/03/25 01:33:55;;;;;;;;;;;15.80;91.70;;;;;;5111376;28;20262;-86
2023/03/25 01:36:23;;;;;;;;;;;15.80;92.00;;;;;;5111640;28;19908;-86
2023/03/25 01:38:49;;;;;;;;;;;15.80;91.70;;;;;;5113755;28;19916;-86
2023/03/25 01:41:15;;;;;;;;;;;15.70;91.60;;;;;;5113441;28;19912;-86
2023/03/25 01:43:40;;;;;;;;;;;15.80;91.60;;;;;;5114320;28;19972;-86
2023/03/25 01:46:12;;;;;;;;;;;15.70;91.60;;;;;;5114312;28;20144;-86
2023/03/25 01:48:40;;;;;;;;;;;15.70;91.60;;;;;;5113666;28;19969;-86
2023/03/25 01:51:24;;;;;;;;;;;15.70;91.60;;;;;;5113762;28;20274;-86
2023/03/25 01:53:52;;;;;;;;;;;15.70;91.50;;;;;;5114315;28;19950;-86
2023/03/25 01:56:19;;;;;;;;;;;15.70;91.50;;;;;;5114043;28;19931;-86
2023/03/25 01:58:45;;;;;;;;;;;15.70;91.50;;;;;;5115274;28;19958;-86
2023/03/25 02:01:15;;;;;;;;;;;15.70;91.50;;;;;;5114148;28;19923;-87
2023/03/25 02:03:44;;;;;;;;;;;15.70;91.50;;;;;;5119269;28;19919;-87
2023/03/25 02:06:16;;;;;;;;;;;15.60;91.40;;;;;;5118644;28;19912;-86
2023/03/25 02:08:42;;;;;;;;;;;15.60;91.40;;;;;;5097001;28;19978;-86
2023/03/25 02:11:08;;;;;;;;;;;15.60;91.40;;;;;;5113406;28;20225;-87
2023/03/25 02:13:37;;;;;;;;;;;15.60;91.40;;;;;;5114343;28;19944;-86
2023/03/25 02:16:25;;;;;;;;;;;15.60;91.40;;;;;;5098257;28;19908;-86
2023/03/25 02:18:51;;;;;;;;;;;15.60;91.40;;;;;;5051002;28;19908;-86
2023/03/25 02:21:44;;;;;;;;;;;15.60;91.40;;;;;;5113988;28;19962;-86
2023/03/25 02:24:19;;;;;;;;;;;15.60;91.40;;;;;;5080614;28;20004;-85
2023/03/25 02:26:48;;;;;;;;;;;15.60;91.40;;;;;;5113789;28;19943;-86
2023/03/25 02:29:22;;;;;;;;;;;15.60;91.40;;;;;;5112726;28;20002;-85
2023/03/25 02:32:07;;;;;;;;;;;15.60;91.40;;;;;;5113405;28;20054;-86
2023/03/25 02:34:41;;;;;;;;;;;15.60;91.30;;;;;;5113259;28;19916;-87
2023/03/25 02:37:26;;;;;;;;;;;15.60;91.30;;;;;;5114912;28;20213;-86
2023/03/25 02:39:55;;;;;;;;;;;15.60;91.30;;;;;;5114333;28;20368;-86
2023/03/25 02:42:20;;;;;;;;;;;15.60;91.30;;;;;;5113550;28;19909;-86
2023/03/25 02:44:55;;;;;;;;;;;15.50;91.20;;;;;;5113841;28;19919;-86
2023/03/25 02:47:23;;;;;;;;;;;15.50;91.20;;;;;;5112901;28;19908;-86
2023/03/25 02:49:54;;;;;;;;;;;15.50;91.20;;;;;;5097353;28;20007;-86
2023/03/25 02:52:26;;;;;;;;;;;15.50;91.20;;;;;;5097570;28;19986;-86
2023/03/25 02:54:52;;;;;;;;;;;15.50;91.20;;;;;;5114574;28;19989;-86
2023/03/25 02:57:20;;;;;;;;;;;15.50;91.20;;;;;;5113892;28;20247;-86
2023/03/25 02:59:46;;;;;;;;;;;15.50;91.20;;;;;;5114340;28;20018;-86
2023/03/25 03:02:12;;;;;;;;;;;15.50;91.20;;;;;;5114210;28;19916;-86
2023/03/25 03:04:48;;;;;;;;;;;15.50;91.10;;;;;;5114665;28;20453;-86
2023/03/25 03:07:22;;;;;;;;;;;15.50;91.10;;;;;;5114163;28;19973;-85
2023/03/25 03:09:55;;;;;;;;;;;15.50;91.10;;;;;;5114099;28;19912;-86
2023/03/25 03:12:21;;;;;;;;;;;15.50;91.10;;;;;;5114348;28;19919;-86
2023/03/25 03:14:52;;;;;;;;;;;15.50;91.10;;;;;;5113204;28;19909;-87
2023/03/25 03:17:25;;;;;;;;;;;15.50;91.10;;;;;;5097526;28;19908;-86
2023/03/25 03:20:01;;;;;;;;;;;15.50;91.10;;;;;;5113335;28;19913;-86
2023/03/25 03:22:33;;;;;;;;;;;15.40;91.10;;;;;;5113049;28;19909;-86
2023/03/25 03:25:17;;;;;;;;;;;15.40;91.00;;;;;;5113166;28;19908;-86
2023/03/25 03:27:50;;;;;;;;;;;15.40;91.00;;;;;;5113425;28;20178;-85
2023/03/25 03:30:19;;;;;;;;;;;15.40;91.00;;;;;;5079331;28;20347;-86
2023/03/25 03:33:00;;;;;;;;;;;15.40;91.00;;;;;;5112878;28;20109;-86
2023/03/25 03:35:26;;;;;;;;;;;15.40;91.00;;;;;;5112630;28;19912;-86
2023/03/25 03:37:56;;;;;;;;;;;15.40;91.00;;;;;;5112609;28;20205;-86
2023/03/25 03:40:23;;;;;;;;;;;15.40;91.00;;;;;;5111690;28;19912;-86
2023/03/25 03:42:52;;;;;;;;;;;15.40;91.00;;;;;;5111902;28;19933;-89
2023/03/25 03:45:23;;;;;;;;;;;15.40;91.00;;;;;;5111153;28;19912;-86
2023/03/25 03:47:51;;;;;;;;;;;15.40;91.00;;;;;;5110827;28;19916;-86
2023/03/25 03:50:20;;;;;;;;;;;15.40;91.00;;;;;;5111093;28;19990;-86
2023/03/25 03:53:07;;;;;;;;;;;15.40;91.00;;;;;;5111678;28;19914;-86
2023/03/25 03:55:39;;;;;;;;;;;15.40;91.00;;;;;;5110974;28;20357;-86
2023/03/25 03:58:08;;;;;;;;;;;15.30;90.90;;;;;;5111536;28;19940;-86
2023/03/25 04:00:37;;;;;;;;;;;15.30;91.00;;;;;;5111731;28;19955;-86
2023/03/25 04:03:13;;;;;;;;;;;15.30;91.20;;;;;;5111745;28;19912;-86
2023/03/25 04:05:40;;;;;;;;;;;15.40;91.30;;;;;;5111866;28;20181;-85
2023/03/25 04:08:10;;;;;;;;;;;15.30;91.40;;;;;;5112487;28;19908;-87
2023/03/25 04:10:52;;;;;;;;;;;15.30;91.30;;;;;;5112106;28;19922;-86
2023/03/25 04:13:19;;;;;;;;;;;15.30;91.30;;;;;;5112779;28;19923;-86
2023/03/25 04:15:45;;;;;;;;;;;15.30;91.30;;;;;;5112503;28;19916;-86
2023/03/25 04:18:10;;;;;;;;;;;15.30;91.30;;;;;;5095553;28;19941;-87
2023/03/25 04:20:36;;;;;;;;;;;15.30;91.30;;;;;;5112023;28;20391;-86
2023/03/25 04:23:04;;;;;;;;;;;15.30;91.30;;;;;;5110347;28;20202;-87
2023/03/25 04:25:31;;;;;;;;;;;15.30;91.30;;;;;;5110663;28;19908;-87
2023/03/25 04:27:57;;;;;;;;;;;15.30;91.30;;;;;;5111297;28;19914;-86
2023/03/25 04:30:24;;;;;;;;;;;15.30;91.30;;;;;;5111274;28;19991;-86
2023/03/25 04:32:50;;;;;;;;;;;15.30;91.20;;;;;;5110556;28;19923;-86
2023/03/25 04:35:18;;;;;;;;;;;15.30;91.20;;;;;;5111994;28;19908;-86
2023/03/25 04:37:44;;;;;;;;;;;15.30;91.20;;;;;;5112733;28;19916;-87
2023/03/25 04:40:17;;;;;;;;;;;15.30;91.20;;;;;;5113610;28;19912;-87
2023/03/25 04:42:46;;;;;;;;;;;15.30;91.20;;;;;;5112731;28;19919;-87
2023/03/25 04:45:15;;;;;;;;;;;15.30;91.50;;;;;;5112653;28;20366;-87
2023/03/25 04:47:45;;;;;;;;;;;15.20;91.20;;;;;;5112523;28;19908;-87
2023/03/25 04:50:18;;;;;;;;;;;15.20;91.20;;;;;;5112456;28;20175;-86
2023/03/25 04:52:43;;;;;;;;;;;15.20;91.10;;;;;;5112154;28;19915;-86
2023/03/25 04:55:10;;;;;;;;;;;15.20;91.10;;;;;;5078767;28;19991;-87
2023/03/25 04:57:36;;;;;;;;;;;15.20;91.10;;;;;;5112163;28;19954;-87
2023/03/25 05:00:05;;;;;;;;;;;15.20;91.10;;;;;;5112402;28;19975;-87
2023/03/25 05:02:31;;;;;;;;;;;15.20;91.00;;;;;;5111878;28;19908;-87
2023/03/25 05:05:01;;;;;;;;;;;15.20;91.00;;;;;;5112660;28;19909;-86
2023/03/25 05:07:28;;;;;;;;;;;15.20;91.00;;;;;;5112258;28;19908;-88
2023/03/25 05:09:56;;;;;;;;;;;15.20;91.00;;;;;;5112898;28;20185;-88
2023/03/25 05:12:36;;;;;;;;;;;15.20;91.00;;;;;;5116632;28;19943;-87
2023/03/25 05:15:01;;;;;;;;;;;15.20;91.00;;;;;;5119395;28;19973;-87
2023/03/25 05:17:28;;;;;;;;;;;15.20;91.00;;;;;;5085230;28;19916;-86
2023/03/25 05:19:55;;;;;;;;;;;15.10;90.90;;;;;;5083638;28;20005;-86
2023/03/25 05:22:21;;;;;;;;;;;15.10;90.90;;;;;;5116192;28;19999;-86
2023/03/25 05:24:47;;;;;;;;;;;15.10;90.90;;;;;;5116210;28;20266;-87
2023/03/25 05:27:13;;;;;;;;;;;15.10;90.90;;;;;;5116234;28;20018;-87
2023/03/25 05:29:38;;;;;;;;;;;15.10;90.90;;;;;;5116051;28;20027;-88
2023/03/25 05:32:04;;;;;;;;;;;15.10;90.80;;;;;;5116290;28;19912;-88
2023/03/25 05:34:30;;;;;;;;;;;15.10;90.90;;;;;;5116025;28;19926;-86
2023/03/25 05:36:56;;;;;;;;;;;15.10;90.80;;;;;;5116752;28;19922;-87
2023/03/25 05:39:21;;;;;;;;;;;15.10;90.80;;;;;;5115881;28;19987;-87
2023/03/25 05:41:47;;;;;;;;;;;15.10;90.80;;;;;;5114272;28;20046;-88
2023/03/25 05:44:14;;;;;;;;;;;15.10;90.80;;;;;;5114322;28;19912;-87
2023/03/25 05:46:39;;;;;;;;;;;15.10;90.80;;;;;;5115782;28;19920;-87
2023/03/25 05:49:05;;;;;;;;;;;15.10;90.80;;;;;;5115967;28;20187;-87
2023/03/25 05:51:38;;;;;;;;;;;15.10;90.70;;;;;;5118046;28;19908;-88
2023/03/25 05:54:09;;;;;;;;;;;15.10;90.70;;;;;;5123521;28;20053;-87
2023/03/25 05:56:35;;;;;;;;;;;15.10;90.70;;;;;;5121559;28;19912;-87
2023/03/25 05:59:02;;;;;;;;;;;15.10;90.70;;;;;;5115682;28;19919;-88
2023/03/25 06:01:28;;;;;;;;;;;15.10;90.60;;;;;;5115782;28;20148;-88
2023/03/25 06:03:54;;;;;;;;;;;15.10;90.60;;;;;;5116146;28;19908;-87
2023/03/25 06:06:20;;;;;;;;;;;15.10;90.50;;;;;;5114829;28;19908;-87
2023/03/25 06:08:48;;;;;;;;;;;15.10;90.40;;;;;;5113736;28;19973;-87
2023/03/25 06:11:15;;;;;;;;;;;15.10;90.40;;;;;;5112671;28;20219;-86
2023/03/25 06:13:48;;;;;;;;;;;15.10;90.30;;;;;;5113518;28;19919;-87
2023/03/25 06:16:19;;;;;;;;;;;15.10;90.30;;;;;;5116169;28;20008;-87
2023/03/25 06:18:55;;;;;;;;;;;15.10;90.20;;;;;;5117137;28;19974;-86
2023/03/25 06:21:25;;;;;;;;;;;15.10;90.10;;;;;;5115782;28;20286;-86
2023/03/25 06:23:52;;;;;;;;;;;15.10;90.10;;;;;;5110754;28;19916;-86
2023/03/25 06:26:19;;;;;;;;;;;15.10;90.20;;;;;;5093880;28;20277;-86
2023/03/25 06:28:45;;;;;;;;;;;15.10;90.10;;;;;;5110369;28;20305;-86
2023/03/25 06:31:12;;;;;;;;;;;15.10;90.10;;;;;;5110862;28;19912;-87
2023/03/25 06:33:37;;;;;;;;;;;15.10;90.00;;;;;;5111723;28;19995;-86
2023/03/25 06:36:03;;;;;;;;;;;15.10;90.00;;;;;;5109753;28;20344;-87
2023/03/25 06:38:29;;;;;;;;;;;15.10;90.10;;;;;;5111541;28;20086;-86
2023/03/25 06:40:55;;;;;;;;;;;15.10;90.10;;;;;;5111028;28;19919;-86
2023/03/25 06:43:21;;;;;;;;;;;15.00;90.10;;;;;;5111343;28;20037;-86
2023/03/25 06:45:49;;;;;;;;;;;15.00;90.00;;;;;;5111280;28;19909;-87
2023/03/25 06:48:15;;;;;;;;;;;15.00;90.00;;;;;;5111767;28;20099;-88
2023/03/25 06:50:41;;;;;;;;;;;15.10;90.00;;;;;;5111929;28;19909;-88
2023/03/25 06:53:06;;;;;;;;;;;15.10;90.00;;;;;;5112517;28;20239;-87
2023/03/25 06:55:32;;;;;;;;;;;15.20;89.70;;;;;;5112200;28;19908;-87
2023/03/25 06:57:57;;;;;;;;;;;15.20;90.00;;;;;;5111223;28;20246;-87
2023/03/25 07:00:25;;;;;;;;;;;15.10;89.30;;;;;;5110536;28;19912;-87
2023/03/25 07:02:51;;;;;;;;;;;15.10;89.40;;;;;;5111286;28;20252;-88
2023/03/25 07:05:17;;;;;;;;;;;15.10;89.50;;;;;;5107504;28;19908;-88
2023/03/25 07:07:42;;;;;;;;;;;15.10;89.70;;;;;;5108312;28;20258;-88
2023/03/25 07:10:10;;;;;;;;;;;15.00;90.10;;;;;;5106333;28;20203;-88
2023/03/25 07:12:36;;;;;;;;;;;15.00;89.80;;;;;;5106093;28;19918;-87
2023/03/25 07:15:02;;;;;;;;;;;15.00;89.90;;;;;;5106381;28;19908;-88
2023/03/25 07:17:27;;;;;;;;;;;15.00;89.90;;;;;;5107566;28;20063;-87
2023/03/25 07:19:53;;;;;;;;;;;15.00;89.80;;;;;;5108053;28;19943;-87
2023/03/25 07:22:19;;;;;;;;;;;15.00;89.80;;;;;;5109794;28;19908;-89
2023/03/25 07:24:44;;;;;;;;;;;15.00;89.80;;;;;;5109284;28;20014;-87
2023/03/25 07:27:10;;;;;;;;;;;15.00;89.80;;;;;;5110515;28;20163;-87
2023/03/25 07:29:36;;;;;;;;;;;15.10;89.70;;;;;;5109249;28;19931;-87
2023/03/25 07:32:02;;;;;;;;;;;15.10;89.50;;;;;;5074553;28;19999;-87
2023/03/25 07:34:27;;;;;;;;;;;15.10;89.30;;;;;;5107639;28;19980;-87
2023/03/25 07:36:53;;;;;;;;;;;15.20;89.00;;;;;;5106824;28;20060;-86
2023/03/25 07:39:20;;;;;;;;;;;15.40;88.20;;;;;;5108054;28;20020;-87
2023/03/25 07:41:46;;;;;;;;;;;15.60;87.00;;;;;;5109661;28;20224;-89
2023/03/25 07:44:13;;;;;;;;;;;15.50;86.40;;;;;;5111116;28;20168;-87
2023/03/25 07:46:38;;;;;;;;;;;15.60;86.10;;;;;;5111120;28;19934;-88
2023/03/25 07:49:04;;;;;;;;;;;15.70;85.70;;;;;;5108575;28;20269;-87
2023/03/25 07:51:32;;;;;;;;;;;15.70;85.40;;;;;;5108649;28;19916;-87
2023/03/25 07:53:57;;;;;;;;;;;15.70;85.20;;;;;;5091897;28;19908;-87
2023/03/25 07:56:23;;;;;;;;;;;15.60;85.10;;;;;;5106782;28;19919;-87
2023/03/25 07:58:48;;;;;;;;;;;15.60;85.50;;;;;;5107978;28;19908;-87
2023/03/25 08:01:14;;;;;;;;;;;15.50;85.90;;;;;;5108727;28;20155;-87
2023/03/25 08:03:40;;;;;;;;;;;15.40;86.20;;;;;;5107157;28;20182;-87
2023/03/25 08:06:06;;;;;;;;;;;15.30;86.50;;;;;;5107716;28;19918;-87
2023/03/25 08:08:32;;;;;;;;;;;15.30;86.80;;;;;;5092742;28;19920;-86
2023/03/25 08:10:58;;;;;;;;;;;15.30;87.10;;;;;;5107739;28;19955;-87
2023/03/25 08:13:24;;;;;;;;;;;15.20;87.20;;;;;;5107701;28;20016;-87
2023/03/25 08:15:50;;;;;;;;;;;15.30;87.30;;;;;;5107437;28;20186;-87
2023/03/25 08:18:16;;;;;;;;;;;15.20;87.40;;;;;;5091824;28;20076;-87
2023/03/25 08:20:42;;;;;;;;;;;15.20;87.80;;;;;;5107350;28;19912;-87
2023/03/25 08:23:09;;;;;;;;;;;15.20;88.50;;;;;;5109802;28;19912;-87
2023/03/25 08:25:35;;;;;;;;;;;15.20;89.10;;;;;;5107700;28;19918;-86
2023/03/25 08:28:01;;;;;;;;;;;15.20;89.70;;;;;;5108647;28;19920;-86
2023/03/25 08:30:27;;;;;;;;;;;15.10;90.00;;;;;;5108115;28;19969;-87
2023/03/25 08:32:55;;;;;;;;;;;15.10;90.10;;;;;;5106934;28;19974;-87
2023/03/25 08:35:22;;;;;;;;;;;15.10;90.20;;;;;;5107664;28;20310;-87
2023/03/25 08:37:48;;;;;;;;;;;15.10;90.20;;;;;;5107811;28;19916;-86
2023/03/25 08:40:16;;;;;;;;;;;15.30;90.00;;;;;;5107488;28;19912;-87
2023/03/25 08:42:41;;;;;;;;;;;16.00;87.40;;;;;;5109241;28;19908;-86
2023/03/25 08:45:07;;;;;;;;;;;16.90;82.80;;;;;;5107819;28;19940;-87
2023/03/25 08:47:33;;;;;;;;;;;17.10;78.60;;;;;;5074119;28;19914;-86
2023/03/25 08:49:59;;;;;;;;;;;17.00;78.30;;;;;;5108063;28;20193;-87
2023/03/25 08:52:25;;;;;;;;;;;17.60;75.50;;;;;;5075083;28;19908;-87
2023/03/25 08:54:50;;;;;;;;;;;17.30;75.50;;;;;;5092113;28;20003;-87
2023/03/25 08:57:16;;;;;;;;;;;16.90;76.80;;;;;;5091796;28;19908;-87
2023/03/25 08:59:43;;;;;;;;;;;16.60;78.50;;;;;;5092525;28;19923;-87
2023/03/25 09:02:11;;;;;;;;;;;16.50;80.00;;;;;;5107850;28;20000;-86
2023/03/25 09:04:38;;;;;;;;;;;16.30;81.10;;;;;;5108316;28;19915;-87
2023/03/25 09:07:09;;;;;;;;;;;16.20;81.80;;;;;;5108565;28;19908;-88
2023/03/25 09:09:38;;;;;;;;;;;16.10;82.50;;;;;;5106814;28;19920;-86
2023/03/25 09:12:04;;;;;;;;;;;16.10;83.20;;;;;;5091024;28;19909;-86
2023/03/25 09:14:29;;;;;;;;;;;16.00;84.30;;;;;;5106282;28;20085;-86
2023/03/25 09:16:55;;;;;;;;;;;16.00;85.00;;;;;;5108285;28;19923;-87
2023/03/25 09:19:21;;;;;;;;;;;16.00;85.20;;;;;;5090660;28;19908;-86
2023/03/25 09:21:46;;;;;;;;;;;17.00;81.50;;;;;;5091306;28;19908;-87
2023/03/25 09:24:12;;;;;;;;;;;17.00;79.30;;;;;;5105822;28;20045;-87
2023/03/25 09:26:38;;;;;;;;;;;16.90;79.10;;;;;;5107540;28;19919;-87
2023/03/25 09:29:04;;;;;;;;;;;16.70;79.60;;;;;;5116138;28;19911;-86
2023/03/25 09:31:29;;;;;;;;;;;16.60;80.50;;;;;;5108314;28;20061;-86
2023/03/25 09:33:55;;;;;;;;;;;16.40;81.40;;;;;;5107791;28;19922;-86
2023/03/25 09:36:20;;;;;;;;;;;16.40;81.90;;;;;;5106978;28;20187;-87
2023/03/25 09:38:46;;;;;;;;;;;16.40;82.90;;;;;;5107646;28;19908;-86
2023/03/25 09:41:35;;;;;;;;;;;16.40;82.80;;;;;;5089586;28;19923;-87
2023/03/25 09:44:13;;;;;;;;;;;16.70;82.00;;;;;;5105138;28;19908;-86
2023/03/25 09:46:49;;;;;;;;;;;17.40;78.70;;;;;;5105402;28;19908;-87
2023/03/25 09:49:21;;;;;;;;;;;17.30;77.10;;;;;;5087871;28;19939;-87
2023/03/25 09:51:47;;;;;;;;;;;17.10;77.90;;;;;;5088379;28;19908;-88
2023/03/25 09:54:19;;;;;;;;;;;17.20;77.40;;;;;;5072104;28;19957;-88
2023/03/25 09:56:47;;;;;;;;;;;17.00;77.90;;;;;;5107413;28;19908;-87
2023/03/25 09:59:13;;;;;;;;;;;16.80;78.90;;;;;;5109426;28;19916;-86
2023/03/25 10:01:57;;;;;;;;;;;16.70;80.00;;;;;;5111519;28;19918;-87
2023/03/25 10:04:35;;;;;;;;;;;16.60;80.70;;;;;;5094921;28;19908;-87
2023/03/25 10:07:04;;;;;;;;;;;16.50;81.50;;;;;;5111106;28;19966;-87
2023/03/25 10:09:37;;;;;;;;;;;16.40;82.10;;;;;;5110402;28;19908;-87
2023/03/25 10:12:23;;;;;;;;;;;16.40;82.40;;;;;;5110178;28;20036;-87
2023/03/25 10:14:58;;;;;;;;;;;16.40;82.40;;;;;;5108085;28;19951;-87
2023/03/25 10:17:56;;;;;;;;;;;16.40;82.50;;;;;;5109441;28;20266;-88
2023/03/25 10:20:26;;;;;;;;;;;16.40;82.60;;;;;;5041237;28;20357;-89
2023/03/25 10:23:14;;;;;;;;;;;16.60;81.60;;;;;;5110340;28;19919;-90
2023/03/25 10:25:44;;;;;;;;;;;16.60;81.60;;;;;;5045416;28;19923;-88
2023/03/25 10:28:22;;;;;;;;;;;16.60;81.50;;;;;;5074769;28;19908;-89
2023/03/25 10:30:51;;;;;;;;;;;16.60;81.10;;;;;;5107500;28;19920;-88
2023/03/25 10:33:26;;;;;;;;;;;16.70;80.80;;;;;;5108100;28;20266;-89
2023/03/25 10:35:53;;;;;;;;;;;16.80;80.20;;;;;;5104303;28;19908;-89
2023/03/25 10:38:20;;;;;;;;;;;16.90;79.70;;;;;;5071875;28;20320;-89
2023/03/25 10:41:15;;;;;;;;;;;16.80;80.00;;;;;;5104872;28;19977;-89
2023/03/25 10:43:41;;;;;;;;;;;16.70;80.00;;;;;;5059614;28;19908;-89
2023/03/25 10:46:07;;;;;;;;;;;16.60;80.50;;;;;;5091789;28;19932;-89
2023/03/25 10:48:33;;;;;;;;;;;16.70;80.40;;;;;;5092079;28;19908;-88
2023/03/25 10:51:05;;;;;;;;;;;16.90;79.90;;;;;;5106781;28;20032;-89
2023/03/25 10:53:31;;;;;;;;;;;16.90;79.50;;;;;;5090637;28;20117;-89
2023/03/25 10:56:09;;;;;;;;;;;16.90;79.30;;;;;;5091564;28;20171;-89
2023/03/25 10:58:36;;;;;;;;;;;16.90;79.40;;;;;;5091162;28;19908;-89
2023/03/25 11:01:09;;;;;;;;;;;16.90;79.20;;;;;;5108431;28;19941;-89
2023/03/25 11:03:35;;;;;;;;;;;16.90;79.20;;;;;;5107116;28;20202;-88
2023/03/25 11:06:01;;;;;;;;;;;16.90;79.30;;;;;;5106890;28;19908;-89
2023/03/25 11:08:27;;;;;;;;;;;17.00;79.00;;;;;;5106273;28;19909;-89
2023/03/25 11:10:56;;;;;;;;;;;17.10;78.70;;;;;;5106912;28;19909;-90
2023/03/25 11:13:29;;;;;;;;;;;17.00;78.80;;;;;;5108725;28;19937;-89
2023/03/25 11:15:59;;;;;;;;;;;17.10;78.50;;;;;;5106767;28;19920;-90
2023/03/25 11:18:35;;;;;;;;;;;17.00;78.90;;;;;;5106333;28;20257;-90
2023/03/25 11:21:09;;;;;;;;;;;16.80;79.30;;;;;;5088691;28;19925;-90
2023/03/25 11:23:46;;;;;;;;;;;16.70;80.00;;;;;;5087821;28;19908;-90
2023/03/25 11:26:13;;;;;;;;;;;16.60;80.70;;;;;;5102590;28;19913;-90
2023/03/25 11:28:40;;;;;;;;;;;16.60;81.10;;;;;;5101339;28;19912;-91
2023/03/25 11:31:16;;;;;;;;;;;16.60;81.50;;;;;;5104319;28;19955;-90
2023/03/25 11:33:43;;;;;;;;;;;16.60;81.70;;;;;;5103595;28;19947;-90
2023/03/25 11:36:21;;;;;;;;;;;16.60;81.80;;;;;;5105220;28;19981;-91
2023/03/25 11:38:49;;;;;;;;;;;16.70;81.40;;;;;;5103817;28;19920;-90
2023/03/25 11:41:15;;;;;;;;;;;16.70;81.20;;;;;;5103767;28;20170;-90
2023/03/25 11:43:41;;;;;;;;;;;16.60;81.50;;;;;;5089355;28;20259;-90
2023/03/25 11:46:14;;;;;;;;;;;16.60;81.80;;;;;;5102971;28;20171;-90
2023/03/25 11:48:41;;;;;;;;;;;16.60;81.90;;;;;;5107570;28;19908;-90
2023/03/25 11:51:21;;;;;;;;;;;16.50;82.20;;;;;;5104772;28;19939;-91
2023/03/25 11:54:06;;;;;;;;;;;16.50;82.50;;;;;;5104400;28;20061;-90
2023/03/25 11:56:34;;;;;;;;;;;16.60;82.40;;;;;;5105160;28;19908;-90
2023/03/25 11:59:00;;;;;;;;;;;16.50;82.60;;;;;;5104724;28;19908;-90
2023/03/25 12:01:47;;;;;;;;;;;16.40;83.00;;;;;;5086478;28;19920;-90
2023/03/25 12:04:23;;;;;;;;;;;16.40;83.50;;;;;;5102951;28;19960;-90
2023/03/25 12:06:51;;;;;;;;;;;16.50;83.30;;;;;;5102347;28;19908;-89
2023/03/25 12:09:17;;;;;;;;;;;16.60;83.00;;;;;;5105820;28;20056;-90
2023/03/25 12:11:46;;;;;;;;;;;16.60;82.60;;;;;;5105524;28;19916;-90
2023/03/25 12:14:31;;;;;;;;;;;16.70;82.50;;;;;;5105032;28;19948;-89
2023/03/25 12:17:06;;;;;;;;;;;16.70;82.30;;;;;;5105762;28;19916;-89
2023/03/25 12:19:31;;;;;;;;;;;16.70;82.10;;;;;;5103088;28;19908;-90
2023/03/25 12:22:04;;;;;;;;;;;16.60;82.50;;;;;;5102316;28;19908;-89
2023/03/25 12:24:33;;;;;;;;;;;16.60;82.80;;;;;;5103960;28;19923;-90
2023/03/25 12:27:13;;;;;;;;;;;16.60;82.90;;;;;;5102647;28;20159;-90
2023/03/25 12:29:50;;;;;;;;;;;16.60;83.20;;;;;;5102355;28;20140;-90
2023/03/25 12:32:15;;;;;;;;;;;16.60;83.60;;;;;;5103106;28;20052;-89
2023/03/25 12:34:45;;;;;;;;;;;16.60;83.70;;;;;;5104105;28;20232;-89
2023/03/25 12:37:10;;;;;;;;;;;16.70;83.60;;;;;;5111722;28;19915;-89
2023/03/25 12:39:49;;;;;;;;;;;16.70;83.20;;;;;;5100249;28;19916;-89
2023/03/25 12:42:14;;;;;;;;;;;16.70;83.10;;;;;;5055453;28;19953;-89
2023/03/25 12:44:39;;;;;;;;;;;16.70;83.20;;;;;;5063917;28;19958;-89
2023/03/25 12:47:13;;;;;;;;;;;16.70;83.50;;;;;;5103958;28;19913;-89
2023/03/25 12:49:39;;;;;;;;;;;16.70;83.70;;;;;;5066760;28;19912;-89
2023/03/25 12:52:25;;;;;;;;;;;16.70;83.90;;;;;;5070475;28;19934;-89
2023/03/25 12:55:06;;;;;;;;;;;16.70;84.10;;;;;;5026609;28;19919;-90
2023/03/25 12:57:31;;;;;;;;;;;16.70;84.10;;;;;;5068883;28;20406;-89
2023/03/25 13:00:02;;;;;;;;;;;16.70;84.10;;;;;;5069295;28;19916;-89
2023/03/25 13:02:37;;;;;;;;;;;16.70;84.20;;;;;;5068762;28;20503;-89
2023/03/25 13:05:15;;;;;;;;;;;16.70;84.20;;;;;;5064797;28;19923;-89
2023/03/25 13:08:02;;;;;;;;;;;16.70;84.50;;;;;;5084295;28;19918;-89
2023/03/25 13:10:29;;;;;;;;;;;16.60;84.60;;;;;;5067106;28;19957;-89
2023/03/25 13:13:00;;;;;;;;;;;16.60;84.70;;;;;;5048796;28;19908;-89
2023/03/25 13:15:41;;;;;;;;;;;16.60;84.90;;;;;;5046426;28;19909;-89
2023/03/25 13:18:16;;;;;;;;;;;16.70;85.00;;;;;;5048310;28;19909;-90
2023/03/25 13:20:44;;;;;;;;;;;16.70;85.00;;;;;;5079669;28;20162;-89
2023/03/25 13:23:16;;;;;;;;;;;16.70;85.00;;;;;;5048157;28;19912;-89
2023/03/25 13:25:41;;;;;;;;;;;16.70;85.00;;;;;;5046554;28;20011;-91
2023/03/25 13:28:12;;;;;;;;;;;16.70;85.00;;;;;;5065094;28;19999;-89
2023/03/25 13:30:39;;;;;;;;;;;16.70;84.90;;;;;;5047593;28;20112;-90
2023/03/25 13:33:25;;;;;;;;;;;16.70;84.90;;;;;;5081961;28;19985;-89
2023/03/25 13:36:07;;;;;;;;;;;16.70;85.00;;;;;;5050783;28;20036;-89
2023/03/25 13:38:41;;;;;;;;;;;16.70;85.30;;;;;;5051853;28;20317;-88
2023/03/25 13:41:07;;;;;;;;;;;16.60;85.50;;;;;;5050087;28;20076;-90
2023/03/25 13:43:54;;;;;;;;;;;16.60;85.80;;;;;;5083582;28;19997;-89
2023/03/25 13:46:23;;;;;;;;;;;16.60;86.00;;;;;;5050856;28;20237;-89
2023/03/25 13:49:08;;;;;;;;;;;16.60;86.00;;;;;;5085697;28;20353;-89
2023/03/25 13:51:34;;;;;;;;;;;16.60;86.20;;;;;;5087382;28;19924;-89
2023/03/25 13:54:06;;;;;;;;;;;16.60;86.30;;;;;;5106799;28;19962;-89
2023/03/25 13:56:44;;;;;;;;;;;16.60;86.20;;;;;;5072954;28;19908;-88
2023/03/25 13:59:42;;;;;;;;;;;16.60;86.00;;;;;;5105499;28;19919;-90
2023/03/25 14:02:31;;;;;;;;;;;16.70;85.90;;;;;;5038679;28;19947;-88
2023/03/25 14:05:17;;;;;;;;;;;16.70;85.60;;;;;;5108671;28;20204;-89
2023/03/25 14:08:01;;;;;;;;;;;16.70;85.70;;;;;;5107383;28;19914;-88
2023/03/25 14:10:26;;;;;;;;;;;16.70;85.80;;;;;;5107415;28;19908;-88
2023/03/25 14:12:53;;;;;;;;;;;16.60;86.00;;;;;;5106347;28;19908;-89
2023/03/25 14:15:40;;;;;;;;;;;16.60;86.10;;;;;;5090588;28;20250;-89
2023/03/25 14:18:12;;;;;;;;;;;16.60;86.20;;;;;;5099224;28;19981;-89
2023/03/25 14:20:38;;;;;;;;;;;16.60;86.20;;;;;;5103868;28;20214;-88
2023/03/25 14:23:06;;;;;;;;;;;16.60;86.20;;;;;;5077178;28;19913;-90
2023/03/25 14:25:40;;;;;;;;;;;16.60;86.30;;;;;;5109220;28;19916;-89
2023/03/25 14:28:07;;;;;;;;;;;16.60;86.40;;;;;;5106320;28;20271;-88
2023/03/25 14:30:33;;;;;;;;;;;16.60;86.40;;;;;;5106818;28;19919;-89
2023/03/25 14:33:02;;;;;;;;;;;16.60;86.50;;;;;;5105996;28;20084;-88